Terminal Aerodrome Forecast
Issued by NWS

Home | Current Version | Previous Version | Graphics & Text | Print | Product List | Glossary On
Versions: 1 2 3 4 5 6 7 8 9 10 11 12 13 14 15 16 17 18 19 20 21
000
FTUS43 KLSX 172338
TAFSUS
TAF
KSUS 172338Z 1800/1824 28010KT P6SM OVC015
     FM180200 28007KT P6SM OVC015
     FM181000 VRB04KT 4SM BR SCT015
     FM181600 22005KT P6SM SCT030
     FM181900 18007KT P6SM SCT120=

USA.gov is the U.S. government's official web portal to all federal, state and local government web resources and services.